• Join FlightAware (Why Join?)
  • Login
  • US Flag 
01:28AM EST


 

Airport Tracker/Info


-or-


 

Live Flight TrackerFlight Track Log ✈ N163CA ✈ 13-Sep-2013 ✈ KOMN - KSFB

Flight Track Log - Related Links

Times and Time Zones

All times are in EDT time to prevent confusion due to time zone crossing. See the N163CA flight status page for this flight to view local times or setup timezone preferences in your user account.

Time Position Orientation Groundspeed Altitude Reporting Facility
EDT Latitude Longitude Course Direction KTS MPH feet Rate Location/Type
02:58PM 29.2919 -81.2831 186° South 104 120 2,800  Level Jacksonville Center
02:59PM 29.2650 -81.2931 198° South 107 123 3,400 540 Climbing Jacksonville Center
03:01PM 29.2317 -81.3031 195° South 106 122 3,900 240 Climbing Jacksonville Center
03:02PM 29.2465 -81.1209 186° South  Level FlightAware Approximate
03:02PM 29.2025 -81.3131 197° South 116 133 3,900  Level Jacksonville Center
03:03PM 29.2374 -81.1220 186° South  Level FlightAware Approximate
03:03PM 29.1733 -81.3253 200° South 115 132 3,900  Level Jacksonville Center
03:04PM 29.2283 -81.1232 186° South  Level FlightAware Approximate
03:04PM 29.1422 -81.3353 196° South 114 131 3,900  Level Jacksonville Center
03:05PM 29.1089 -81.3336 177° South 117 135 3,900  Level Jacksonville Center
03:06PM 29.0667 -81.3167 161° South 125 144 3,900  Level Orlando TRACON
03:07PM 29.0333 -81.3000 156° South 123 142 3,900  Level Orlando TRACON
03:08PM 29.0000 -81.3000 180° South 117 135 3,900  Level Orlando TRACON
03:09PM 28.9667 -81.2833 156° South 132 152 4,000  Climbing Orlando TRACON
03:10PM 28.9333 -81.2833 180° South 118 136 3,900 -120 Descending Orlando TRACON
03:11PM 28.9167 -81.3167 240° Southwest 119 137 3,800  Descending Orlando TRACON
03:12PM 28.8833 -81.3333 204° Southwest 115 132 3,900 -180 Climbing Orlando TRACON
03:13PM 28.8667 -81.3667 240° Southwest 118 136 3,500 -540 Descending Orlando TRACON
03:14PM 28.8500 -81.4000 240° Southwest 113 130 2,900 -660 Descending Orlando TRACON
03:15PM 28.8333 -81.4333 240° Southwest 119 137 2,300 -600 Descending Orlando TRACON
03:16PM 28.8000 -81.4167 156° South 117 135 1,700 -360 Descending Orlando TRACON
03:17PM 28.7833 -81.4000 139° Southeast 126 145 1,600 -60 Descending Orlando TRACON
03:18PM 28.7833 -81.3500 90° East 138 159 1,600 -360 Level Orlando TRACON
03:19PM 28.7833 -81.3167 90° East 100 115 900 -240 Descending Orlando TRACON
03:21PM 28.7733 -81.2665 103° East  Level FlightAware Approximate
03:22PM 28.8000 -81.2333 103° East 98 113 800  Level Orlando TRACON
03:22PM 28.8000 -81.2167 90° East 97 112 1,200 720 Climbing Orlando TRACON
03:24PM 28.8333 -81.2167 360° North 106 122 2,100 660 Climbing Orlando TRACON
03:25PM 28.8667 -81.2333 336° Northwest 101 116 2,700 360 Climbing Orlando TRACON
03:26PM 28.8667 -81.2667 270° West 116 133 2,900 60 Climbing Orlando TRACON
03:27PM 28.8500 -81.3000 240° Southwest 109 125 2,900  Level Orlando TRACON
03:28PM 28.8500 -81.3333 270° West 110 127 2,900  Level Orlando TRACON
03:29PM 28.8333 -81.3667 240° Southwest 116 133 2,900  Level Orlando TRACON
03:30PM 28.8333 -81.4000 270° West 110 127 2,900 -180 Level Orlando TRACON
03:30PM 28.8333 -81.4333 270° West 110 127 2,600 -480 Descending Orlando TRACON
03:31PM 28.8167 -81.4667 240° Southwest 111 128 2,000 -420 Descending Orlando TRACON
03:32PM 28.8000 -81.4667 180° South 93 107 1,900  Descending Orlando TRACON
03:33PM 28.7833 -81.4500 139° Southeast 101 116 2,000  Climbing Orlando TRACON
03:35PM 28.7667 -81.4167 120° Southeast 96 110 1,900  Descending Orlando TRACON
03:35PM 28.7667 -81.3833 90° East 102 117 2,000  Climbing Orlando TRACON
03:37PM 28.7667 -81.3500 90° East 99 114 1,900 -120 Descending Orlando TRACON
03:38PM 28.7667 -81.3167 90° East 93 107 1,800 -300 Descending Orlando TRACON
03:39PM 28.7667 -81.3000 90° East 95 109 1,400 -540 Descending Orlando TRACON
03:40PM 28.7667 -81.2667 90° East 98 113 900 -540 Descending Orlando TRACON